Terminal Aerodrome Forecast
Issued by NWS Tuscon, AZ

Home | Current Version | Previous Version | Text Only | Print | Product List | Glossary On
Versions: 1 2 3 4 5 6 7 8 9 10 11 12 13 14
333
FTUS45 KTWC 222320
TAFTUS
TAF
KTUS 222320Z 2300/2324 24013G20KT P6SM BKN090
     FM230200 22011KT P6SM SCT100
     FM230700 14007KT P6SM SKC
     FM232000 25014G22KT P6SM FEW100=

USA.gov is the U.S. government's official web portal to all federal, state and local government web resources and services.